sensor_id;sensor_type;location;lat;lon;timestamp;pressure;altitude;pressure_sealevel;temperature;humidity
80382;BME280;69692;55.820;37.490;2023-05-25T00:01:17;99784.50;;;15.35;84.56
80382;BME280;69692;55.820;37.490;2023-05-25T00:03:43;99772.59;;;15.36;84.56
80382;BME280;69692;55.820;37.490;2023-05-25T00:06:10;99776.97;;;15.42;84.94
80382;BME280;69692;55.820;37.490;2023-05-25T00:08:38;99775.31;;;16.88;84.62
80382;BME280;69692;55.820;37.490;2023-05-25T00:11:04;99779.75;;;18.66;75.35
80382;BME280;69692;55.820;37.490;2023-05-25T00:13:30;99769.91;;;19.82;69.99
80382;BME280;69692;55.820;37.490;2023-05-25T00:15:56;99767.47;;;20.52;66.36
80382;BME280;69692;55.820;37.490;2023-05-25T00:18:22;99768.19;;;21.01;63.92
80382;BME280;69692;55.820;37.490;2023-05-25T00:20:50;99752.34;;;21.35;62.43
80382;BME280;69692;55.820;37.490;2023-05-25T00:23:18;99753.03;;;21.60;61.78
80382;BME280;69692;55.820;37.490;2023-05-25T00:25:45;99752.16;;;21.78;60.85
80382;BME280;69692;55.820;37.490;2023-05-25T00:28:10;99751.69;;;21.90;60.32
80382;BME280;69692;55.820;37.490;2023-05-25T00:30:36;99748.22;;;21.98;59.77
80382;BME280;69692;55.820;37.490;2023-05-25T00:33:02;99754.66;;;22.07;59.38
80382;BME280;69692;55.820;37.490;2023-05-25T00:35:29;99756.78;;;22.10;59.28
80382;BME280;69692;55.820;37.490;2023-05-25T00:37:55;99753.94;;;22.15;58.82
80382;BME280;69692;55.820;37.490;2023-05-25T00:40:21;99761.56;;;22.18;58.62
80382;BME280;69692;55.820;37.490;2023-05-25T00:42:46;99753.84;;;22.20;58.45
80382;BME280;69692;55.820;37.490;2023-05-25T00:45:12;99756.28;;;22.22;58.44
80382;BME280;69692;55.820;37.490;2023-05-25T00:47:38;99749.69;;;22.23;58.33
80382;BME280;69692;55.820;37.490;2023-05-25T00:50:07;99743.59;;;21.01;62.19
80382;BME280;69692;55.820;37.490;2023-05-25T00:52:34;99745.03;;;19.84;66.15
80382;BME280;69692;55.820;37.490;2023-05-25T00:55:01;99739.16;;;19.03;68.47
80382;BME280;69692;55.820;37.490;2023-05-25T00:57:32;99738.19;;;18.35;71.81
80382;BME280;69692;55.820;37.490;2023-05-25T00:59:59;99726.41;;;17.70;74.52
80382;BME280;69692;55.820;37.490;2023-05-25T01:02:27;99719.91;;;17.35;75.46
80382;BME280;69692;55.820;37.490;2023-05-25T01:04:55;99712.56;;;17.15;76.44
80382;BME280;69692;55.820;37.490;2023-05-25T01:07:25;99717.97;;;16.95;77.37
80382;BME280;69692;55.820;37.490;2023-05-25T01:10:00;99725.03;;;16.76;78.51
80382;BME280;69692;55.820;37.490;2023-05-25T01:12:28;99711.38;;;16.65;78.71
80382;BME280;69692;55.820;37.490;2023-05-25T01:14:55;99714.09;;;16.55;79.14
80382;BME280;69692;55.820;37.490;2023-05-25T01:17:24;99713.78;;;16.42;79.89
80382;BME280;69692;55.820;37.490;2023-05-25T01:19:50;99711.84;;;16.32;79.85
80382;BME280;69692;55.820;37.490;2023-05-25T01:22:24;99713.16;;;16.19;80.41
80382;BME280;69692;55.820;37.490;2023-05-25T01:24:58;99706.31;;;16.06;81.02
80382;BME280;69692;55.820;37.490;2023-05-25T01:27:46;99710.28;;;15.89;81.60
80382;BME280;69692;55.820;37.490;2023-05-25T01:30:14;99711.63;;;15.81;82.15
80382;BME280;69692;55.820;37.490;2023-05-25T01:32:44;99708.63;;;15.77;81.99
80382;BME280;69692;55.820;37.490;2023-05-25T01:35:10;99717.00;;;15.76;82.32
80382;BME280;69692;55.820;37.490;2023-05-25T01:37:37;99717.53;;;15.73;82.32
80382;BME280;69692;55.820;37.490;2023-05-25T01:40:05;99718.53;;;15.62;82.86
80382;BME280;69692;55.820;37.490;2023-05-25T01:42:31;99716.31;;;15.54;82.95
80382;BME280;69692;55.820;37.490;2023-05-25T01:44:57;99728.22;;;15.52;83.18
80382;BME280;69692;55.820;37.490;2023-05-25T01:53:06;99727.63;;;15.45;83.54
80382;BME280;69692;55.820;37.490;2023-05-25T01:55:42;99723.28;;;15.44;83.58
80382;BME280;69692;55.820;37.490;2023-05-25T01:58:14;99722.78;;;15.47;83.45
80382;BME280;69692;55.820;37.490;2023-05-25T02:00:41;99724.59;;;15.37;84.20
80382;BME280;69692;55.820;37.490;2023-05-25T02:03:08;99719.47;;;15.40;84.54
80382;BME280;69692;55.820;37.490;2023-05-25T02:05:34;99716.28;;;15.48;84.76
80382;BME280;69692;55.820;37.490;2023-05-25T02:08:02;99726.63;;;15.57;84.87
80382;BME280;69692;55.820;37.490;2023-05-25T02:10:30;99720.50;;;15.66;84.59
80382;BME280;69692;55.820;37.490;2023-05-25T02:12:56;99725.66;;;15.73;84.32
80382;BME280;69692;55.820;37.490;2023-05-25T02:15:22;99721.06;;;15.73;84.19
80382;BME280;69692;55.820;37.490;2023-05-25T02:17:48;99728.94;;;15.75;84.31
80382;BME280;69692;55.820;37.490;2023-05-25T02:20:35;99729.47;;;15.77;84.10
80382;BME280;69692;55.820;37.490;2023-05-25T02:23:01;99728.44;;;15.78;83.60
80382;BME280;69692;55.820;37.490;2023-05-25T02:25:27;99736.31;;;15.85;84.24
80382;BME280;69692;55.820;37.490;2023-05-25T02:27:53;99728.47;;;15.88;83.83
80382;BME280;69692;55.820;37.490;2023-05-25T02:30:19;99727.94;;;15.91;84.03
80382;BME280;69692;55.820;37.490;2023-05-25T02:32:45;99740.22;;;15.99;84.10
80382;BME280;69692;55.820;37.490;2023-05-25T02:35:11;99743.75;;;16.04;83.83
80382;BME280;69692;55.820;37.490;2023-05-25T02:37:37;99744.63;;;16.10;83.87
80382;BME280;69692;55.820;37.490;2023-05-25T02:40:04;99761.19;;;16.14;83.55
80382;BME280;69692;55.820;37.490;2023-05-25T02:42:30;99759.84;;;16.16;83.29
80382;BME280;69692;55.820;37.490;2023-05-25T02:44:57;99757.94;;;16.22;83.88
80382;BME280;69692;55.820;37.490;2023-05-25T02:47:23;99766.69;;;16.29;83.68
80382;BME280;69692;55.820;37.490;2023-05-25T02:49:49;99764.50;;;16.31;83.63
80382;BME280;69692;55.820;37.490;2023-05-25T02:52:15;99765.88;;;16.33;83.45
80382;BME280;69692;55.820;37.490;2023-05-25T02:54:41;99771.34;;;16.44;83.58
80382;BME280;69692;55.820;37.490;2023-05-25T02:57:08;99767.28;;;16.51;83.41
80382;BME280;69692;55.820;37.490;2023-05-25T02:59:35;99767.59;;;16.60;82.73
80382;BME280;69692;55.820;37.490;2023-05-25T03:02:01;99763.53;;;16.62;82.47
80382;BME280;69692;55.820;37.490;2023-05-25T03:04:28;99773.31;;;16.63;82.77
80382;BME280;69692;55.820;37.490;2023-05-25T03:06:55;99766.78;;;16.64;82.93
80382;BME280;69692;55.820;37.490;2023-05-25T03:09:22;99760.34;;;16.71;83.05
80382;BME280;69692;55.820;37.490;2023-05-25T03:11:48;99767.97;;;16.79;82.82
80382;BME280;69692;55.820;37.490;2023-05-25T03:14:17;99769.63;;;16.90;82.81
80382;BME280;69692;55.820;37.490;2023-05-25T03:16:50;99780.53;;;17.00;82.58
80382;BME280;69692;55.820;37.490;2023-05-25T03:19:15;99784.63;;;17.13;82.31
80382;BME280;69692;55.820;37.490;2023-05-25T03:21:44;99782.44;;;17.20;81.93
80382;BME280;69692;55.820;37.490;2023-05-25T03:24:09;99781.09;;;17.27;81.69
80382;BME280;69692;55.820;37.490;2023-05-25T03:26:36;99782.72;;;17.34;81.31
80382;BME280;69692;55.820;37.490;2023-05-25T03:29:03;99782.44;;;17.40;80.87
80382;BME280;69692;55.820;37.490;2023-05-25T03:31:31;99782.72;;;17.49;80.64
80382;BME280;69692;55.820;37.490;2023-05-25T03:33:57;99782.44;;;17.55;80.56
80382;BME280;69692;55.820;37.490;2023-05-25T03:36:23;99782.19;;;17.62;80.39
80382;BME280;69692;55.820;37.490;2023-05-25T03:38:52;99781.34;;;17.67;80.43
80382;BME280;69692;55.820;37.490;2023-05-25T03:41:19;99774.31;;;17.71;80.19
80382;BME280;69692;55.820;37.490;2023-05-25T03:43:45;99772.66;;;17.75;79.93
80382;BME280;69692;55.820;37.490;2023-05-25T03:46:11;99772.63;;;17.85;79.78
80382;BME280;69692;55.820;37.490;2023-05-25T03:48:36;99775.09;;;17.92;79.68
80382;BME280;69692;55.820;37.490;2023-05-25T03:51:03;99763.09;;;17.98;79.17
80382;BME280;69692;55.820;37.490;2023-05-25T03:53:29;99771.25;;;18.03;78.77
80382;BME280;69692;55.820;37.490;2023-05-25T03:55:55;99762.25;;;18.07;78.67
80382;BME280;69692;55.820;37.490;2023-05-25T03:58:21;99757.88;;;18.11;78.84
80382;BME280;69692;55.820;37.490;2023-05-25T04:00:47;99750.53;;;18.17;78.16
80382;BME280;69692;55.820;37.490;2023-05-25T04:03:17;99751.56;;;18.26;78.20
80382;BME280;69692;55.820;37.490;2023-05-25T04:05:43;99752.09;;;18.33;77.84
80382;BME280;69692;55.820;37.490;2023-05-25T04:08:13;99755.59;;;18.39;77.72
80382;BME280;69692;55.820;37.490;2023-05-25T04:10:44;99755.31;;;18.45;77.21
80382;BME280;69692;55.820;37.490;2023-05-25T04:13:10;99761.81;;;18.50;76.76
80382;BME280;69692;55.820;37.490;2023-05-25T04:15:36;99757.44;;;18.54;76.79
80382;BME280;69692;55.820;37.490;2023-05-25T04:18:08;99755.56;;;18.49;76.72
80382;BME280;69692;55.820;37.490;2023-05-25T04:20:34;99754.75;;;18.48;77.10
80382;BME280;69692;55.820;37.490;2023-05-25T04:23:00;99744.63;;;18.54;76.91
80382;BME280;69692;55.820;37.490;2023-05-25T04:25:26;99746.50;;;18.59;76.67
80382;BME280;69692;55.820;37.490;2023-05-25T04:27:52;99744.06;;;18.57;76.54
80382;BME280;69692;55.820;37.490;2023-05-25T04:30:33;99740.25;;;18.63;76.43
80382;BME280;69692;55.820;37.490;2023-05-25T04:33:18;99733.66;;;18.69;76.40
80382;BME280;69692;55.820;37.490;2023-05-25T04:35:56;99736.09;;;18.76;75.62
80382;BME280;69692;55.820;37.490;2023-05-25T04:38:23;99743.66;;;18.84;75.67
80382;BME280;69692;55.820;37.490;2023-05-25T04:40:50;99735.44;;;18.89;75.07
80382;BME280;69692;55.820;37.490;2023-05-25T04:43:19;99731.06;;;18.93;75.17
80382;BME280;69692;55.820;37.490;2023-05-25T04:45:45;99734.56;;;18.99;74.82
80382;BME280;69692;55.820;37.490;2023-05-25T04:48:12;99732.06;;;19.02;74.92
80382;BME280;69692;55.820;37.490;2023-05-25T04:50:38;99729.00;;;19.14;74.09
80382;BME280;69692;55.820;37.490;2023-05-25T04:53:08;99736.06;;;19.20;73.83
80382;BME280;69692;55.820;37.490;2023-05-25T04:55:34;99735.19;;;19.25;73.54
80382;BME280;69692;55.820;37.490;2023-05-25T04:58:00;99741.75;;;19.24;74.15
80382;BME280;69692;55.820;37.490;2023-05-25T05:00:27;99736.81;;;19.26;73.90
80382;BME280;69692;55.820;37.490;2023-05-25T05:02:54;99744.72;;;19.27;73.89
80382;BME280;69692;55.820;37.490;2023-05-25T05:05:23;99744.38;;;19.34;73.77
80382;BME280;69692;55.820;37.490;2023-05-25T05:07:50;99747.66;;;19.36;73.41
80382;BME280;69692;55.820;37.490;2023-05-25T05:10:17;99739.72;;;19.40;73.02
80382;BME280;69692;55.820;37.490;2023-05-25T05:12:46;99745.63;;;19.47;73.02
80382;BME280;69692;55.820;37.490;2023-05-25T05:15:13;99741.53;;;19.49;73.20
80382;BME280;69692;55.820;37.490;2023-05-25T05:17:41;99736.09;;;19.49;72.79
80382;BME280;69692;55.820;37.490;2023-05-25T05:20:09;99745.09;;;19.50;72.20
80382;BME280;69692;55.820;37.490;2023-05-25T05:22:36;99746.41;;;19.52;72.29
80382;BME280;69692;55.820;37.490;2023-05-25T05:25:02;99742.59;;;19.53;72.74
80382;BME280;69692;55.820;37.490;2023-05-25T05:27:29;99741.16;;;19.61;72.70
80382;BME280;69692;55.820;37.490;2023-05-25T05:30:11;99732.66;;;19.68;72.14
80382;BME280;69692;55.820;37.490;2023-05-25T05:32:37;99726.31;;;20.20;69.43
80382;BME280;69692;55.820;37.490;2023-05-25T05:35:03;99728.50;;;20.84;67.13
80382;BME280;69692;55.820;37.490;2023-05-25T05:37:44;99729.47;;;21.45;64.89
80382;BME280;69692;55.820;37.490;2023-05-25T05:40:11;99724.28;;;21.90;63.02
80382;BME280;69692;55.820;37.490;2023-05-25T05:42:39;99729.81;;;22.17;62.34
80382;BME280;69692;55.820;37.490;2023-05-25T05:45:07;99728.25;;;22.39;61.38
80382;BME280;69692;55.820;37.490;2023-05-25T05:47:33;99725.63;;;22.34;62.40
80382;BME280;69692;55.820;37.490;2023-05-25T05:50:00;99739.28;;;21.92;63.02
80382;BME280;69692;55.820;37.490;2023-05-25T05:52:25;99728.47;;;21.55;64.65
80382;BME280;69692;55.820;37.490;2023-05-25T05:54:51;99732.09;;;21.18;65.65
80382;BME280;69692;55.820;37.490;2023-05-25T05:57:17;99739.38;;;20.90;66.26
80382;BME280;69692;55.820;37.490;2023-05-25T05:59:43;99739.66;;;20.69;67.27
80382;BME280;69692;55.820;37.490;2023-05-25T06:02:08;99740.91;;;20.58;66.67
80382;BME280;69692;55.820;37.490;2023-05-25T06:04:34;99742.22;;;20.42;67.70
80382;BME280;69692;55.820;37.490;2023-05-25T06:07:02;99735.75;;;20.33;68.36
80382;BME280;69692;55.820;37.490;2023-05-25T06:09:28;99740.56;;;20.17;68.44
80382;BME280;69692;55.820;37.490;2023-05-25T06:11:57;99745.19;;;19.98;68.69
80382;BME280;69692;55.820;37.490;2023-05-25T06:14:23;99737.31;;;19.91;69.40
80382;BME280;69692;55.820;37.490;2023-05-25T06:16:49;99738.13;;;19.91;69.69
80382;BME280;69692;55.820;37.490;2023-05-25T06:19:16;99740.03;;;19.91;69.73
80382;BME280;69692;55.820;37.490;2023-05-25T06:21:41;99747.69;;;19.94;69.47
80382;BME280;69692;55.820;37.490;2023-05-25T06:24:07;99749.34;;;19.90;69.72
80382;BME280;69692;55.820;37.490;2023-05-25T06:26:33;99741.72;;;19.87;69.77
80382;BME280;69692;55.820;37.490;2023-05-25T06:28:59;99740.03;;;19.91;69.96
80382;BME280;69692;55.820;37.490;2023-05-25T06:31:24;99743.25;;;19.98;70.35
80382;BME280;69692;55.820;37.490;2023-05-25T06:33:51;99741.28;;;20.04;70.34
80382;BME280;69692;55.820;37.490;2023-05-25T06:36:16;99740.97;;;20.05;70.13
80382;BME280;69692;55.820;37.490;2023-05-25T06:38:45;99738.91;;;19.97;70.51
80382;BME280;69692;55.820;37.490;2023-05-25T06:41:11;99734.03;;;19.94;71.23
80382;BME280;69692;55.820;37.490;2023-05-25T06:43:40;99731.28;;;19.94;71.03
80382;BME280;69692;55.820;37.490;2023-05-25T06:46:27;99738.66;;;19.93;71.20
80382;BME280;69692;55.820;37.490;2023-05-25T06:48:52;99740.84;;;19.91;71.77
80382;BME280;69692;55.820;37.490;2023-05-25T06:51:18;99731.41;;;19.84;71.99
80382;BME280;69692;55.820;37.490;2023-05-25T06:53:44;99736.88;;;19.79;72.04
80382;BME280;69692;55.820;37.490;2023-05-25T06:56:10;99744.28;;;19.78;72.15
80382;BME280;69692;55.820;37.490;2023-05-25T06:58:35;99739.69;;;19.74;72.42
80382;BME280;69692;55.820;37.490;2023-05-25T07:01:01;99742.72;;;19.72;72.52
80382;BME280;69692;55.820;37.490;2023-05-25T07:03:27;99739.69;;;19.74;72.74
80382;BME280;69692;55.820;37.490;2023-05-25T07:05:53;99735.63;;;19.71;72.64
80382;BME280;69692;55.820;37.490;2023-05-25T07:08:19;99743.81;;;19.71;72.24
80382;BME280;69692;55.820;37.490;2023-05-25T07:10:44;99741.47;;;19.59;73.21
80382;BME280;69692;55.820;37.490;2023-05-25T07:13:10;99750.47;;;19.60;72.90
80382;BME280;69692;55.820;37.490;2023-05-25T07:15:36;99742.78;;;19.62;73.48
80382;BME280;69692;55.820;37.490;2023-05-25T07:18:01;99739.53;;;19.60;72.69
80382;BME280;69692;55.820;37.490;2023-05-25T07:20:27;99743.16;;;19.55;72.98
80382;BME280;69692;55.820;37.490;2023-05-25T07:22:54;99743.69;;;19.52;73.21
80382;BME280;69692;55.820;37.490;2023-05-25T07:25:20;99747.81;;;19.50;73.29
80382;BME280;69692;55.820;37.490;2023-05-25T07:27:49;99743.72;;;19.47;73.10
80382;BME280;69692;55.820;37.490;2023-05-25T07:30:19;99755.19;;;19.49;73.33
80382;BME280;69692;55.820;37.490;2023-05-25T07:32:45;99750.81;;;19.48;72.83
80382;BME280;69692;55.820;37.490;2023-05-25T07:35:11;99754.41;;;19.44;73.08
80382;BME280;69692;55.820;37.490;2023-05-25T07:37:36;99747.59;;;19.41;73.27
80382;BME280;69692;55.820;37.490;2023-05-25T07:40:02;99751.66;;;19.44;73.22
80382;BME280;69692;55.820;37.490;2023-05-25T07:42:29;99753.28;;;19.45;73.75
80382;BME280;69692;55.820;37.490;2023-05-25T07:44:59;99745.63;;;19.47;73.65
80382;BME280;69692;55.820;37.490;2023-05-25T07:47:25;99748.13;;;19.43;73.34
80382;BME280;69692;55.820;37.490;2023-05-25T07:49:51;99750.34;;;19.41;73.46
80382;BME280;69692;55.820;37.490;2023-05-25T07:52:17;99739.72;;;19.40;73.23
80382;BME280;69692;55.820;37.490;2023-05-25T07:54:44;99742.72;;;19.38;73.37
80382;BME280;69692;55.820;37.490;2023-05-25T07:57:09;99733.72;;;19.38;73.70
80382;BME280;69692;55.820;37.490;2023-05-25T07:59:35;99734.53;;;19.38;73.96
80382;BME280;69692;55.820;37.490;2023-05-25T08:02:02;99737.78;;;19.40;74.04
80382;BME280;69692;55.820;37.490;2023-05-25T08:04:29;99732.63;;;19.39;74.42
80382;BME280;69692;55.820;37.490;2023-05-25T08:06:55;99735.31;;;19.44;74.14
80382;BME280;69692;55.820;37.490;2023-05-25T08:09:21;99738.84;;;19.44;74.25
80382;BME280;69692;55.820;37.490;2023-05-25T08:11:47;99734.97;;;19.50;73.71
80382;BME280;69692;55.820;37.490;2023-05-25T08:14:13;99741.00;;;19.47;74.08
80382;BME280;69692;55.820;37.490;2023-05-25T08:16:39;99745.34;;;19.48;74.43
80382;BME280;69692;55.820;37.490;2023-05-25T08:19:05;99737.97;;;19.49;73.92
80382;BME280;69692;55.820;37.490;2023-05-25T08:21:30;99740.44;;;19.50;74.23
80382;BME280;69692;55.820;37.490;2023-05-25T08:23:59;99742.06;;;19.51;74.57
80382;BME280;69692;55.820;37.490;2023-05-25T08:26:29;99736.91;;;19.50;74.39
80382;BME280;69692;55.820;37.490;2023-05-25T08:28:55;99745.09;;;19.50;74.02
80382;BME280;69692;55.820;37.490;2023-05-25T08:31:21;99745.34;;;19.48;74.06
80382;BME280;69692;55.820;37.490;2023-05-25T08:33:47;99741.56;;;19.44;74.28
80382;BME280;69692;55.820;37.490;2023-05-25T08:36:12;99743.47;;;19.44;74.43
80382;BME280;69692;55.820;37.490;2023-05-25T08:38:38;99736.41;;;19.43;74.35
80382;BME280;69692;55.820;37.490;2023-05-25T08:41:05;99744.06;;;19.41;74.33
80382;BME280;69692;55.820;37.490;2023-05-25T08:43:32;99741.03;;;19.42;74.58
80382;BME280;69692;55.820;37.490;2023-05-25T08:46:06;99735.31;;;19.44;74.59
80382;BME280;69692;55.820;37.490;2023-05-25T08:48:33;99739.94;;;19.43;74.45
80382;BME280;69692;55.820;37.490;2023-05-25T08:51:07;99740.47;;;19.45;74.58
80382;BME280;69692;55.820;37.490;2023-05-25T08:53:37;99743.53;;;19.39;75.32
80382;BME280;69692;55.820;37.490;2023-05-25T08:56:15;99742.19;;;19.36;75.24
80382;BME280;69692;55.820;37.490;2023-05-25T09:02:07;99736.25;;;19.29;75.89
80382;BME280;69692;55.820;37.490;2023-05-25T09:04:39;99732.47;;;19.25;76.67
80382;BME280;69692;55.820;37.490;2023-05-25T09:07:05;99734.09;;;19.26;76.54
80382;BME280;69692;55.820;37.490;2023-05-25T09:09:31;99731.66;;;19.24;77.22
80382;BME280;69692;55.820;37.490;2023-05-25T09:11:59;99726.50;;;19.23;78.13
80382;BME280;69692;55.820;37.490;2023-05-25T09:14:26;99732.47;;;19.25;78.59
80382;BME280;69692;55.820;37.490;2023-05-25T09:16:52;99732.22;;;19.21;79.48
80382;BME280;69692;55.820;37.490;2023-05-25T09:19:18;99727.88;;;19.20;79.39
80382;BME280;69692;55.820;37.490;2023-05-25T09:21:44;99728.13;;;19.19;79.48
80382;BME280;69692;55.820;37.490;2023-05-25T09:24:10;99730.03;;;19.18;79.77
80382;BME280;69692;55.820;37.490;2023-05-25T09:26:36;99732.22;;;19.21;79.10
80382;BME280;69692;55.820;37.490;2023-05-25T09:29:02;99730.84;;;19.19;79.00
80382;BME280;69692;55.820;37.490;2023-05-25T09:31:28;99734.16;;;19.16;79.59
80382;BME280;69692;55.820;37.490;2023-05-25T09:33:55;99734.22;;;19.11;80.07
80382;BME280;69692;55.820;37.490;2023-05-25T09:36:25;99736.94;;;19.11;80.84
80382;BME280;69692;55.820;37.490;2023-05-25T09:38:54;99738.03;;;19.10;80.28
80382;BME280;69692;55.820;37.490;2023-05-25T09:41:20;99736.69;;;19.07;80.49
80382;BME280;69692;55.820;37.490;2023-05-25T09:43:46;99746.53;;;19.03;80.57
80382;BME280;69692;55.820;37.490;2023-05-25T09:46:12;99745.72;;;19.02;81.09
80382;BME280;69692;55.820;37.490;2023-05-25T09:48:38;99738.63;;;19.01;81.40
80382;BME280;69692;55.820;37.490;2023-05-25T09:51:05;99738.91;;;19.05;81.70
80382;BME280;69692;55.820;37.490;2023-05-25T09:53:32;99744.06;;;19.06;80.90
80382;BME280;69692;55.820;37.490;2023-05-25T09:55:59;99739.16;;;19.09;81.00
80382;BME280;69692;55.820;37.490;2023-05-25T09:58:25;99738.91;;;19.05;80.98
80382;BME280;69692;55.820;37.490;2023-05-25T10:00:52;99734.25;;;19.05;81.67
80382;BME280;69692;55.820;37.490;2023-05-25T10:03:19;99732.34;;;19.06;80.89
80382;BME280;69692;55.820;37.490;2023-05-25T10:05:47;99734.25;;;19.05;81.45
80382;BME280;69692;55.820;37.490;2023-05-25T10:08:13;99729.91;;;19.04;81.89
80382;BME280;69692;55.820;37.490;2023-05-25T10:10:39;99733.16;;;19.06;82.01
80382;BME280;69692;55.820;37.490;2023-05-25T10:13:07;99731.53;;;19.05;81.93
80382;BME280;69692;55.820;37.490;2023-05-25T10:15:36;99728.53;;;19.02;82.27
80382;BME280;69692;55.820;37.490;2023-05-25T10:18:04;99725.81;;;19.02;82.72
80382;BME280;69692;55.820;37.490;2023-05-25T10:20:31;99724.19;;;19.01;83.07
80382;BME280;69692;55.820;37.490;2023-05-25T10:23:04;99726.09;;;19.00;83.17
80382;BME280;69692;55.820;37.490;2023-05-25T10:25:33;99734.50;;;19.09;83.05
80382;BME280;69692;55.820;37.490;2023-05-25T10:28:07;99721.91;;;19.13;82.58
80382;BME280;69692;55.820;37.490;2023-05-25T10:30:38;99731.41;;;19.21;82.75
80382;BME280;69692;55.820;37.490;2023-05-25T10:33:03;99726.19;;;19.24;82.45
80382;BME280;69692;55.820;37.490;2023-05-25T10:35:29;99722.38;;;19.25;82.39
80382;BME280;69692;55.820;37.490;2023-05-25T10:37:57;99724.22;;;19.30;82.42
80382;BME280;69692;55.820;37.490;2023-05-25T10:40:23;99719.81;;;19.34;81.92
80382;BME280;69692;55.820;37.490;2023-05-25T10:42:51;99719.28;;;19.37;81.44
80382;BME280;69692;55.820;37.490;2023-05-25T10:45:17;99722.53;;;19.39;81.33
80382;BME280;69692;55.820;37.490;2023-05-25T10:47:43;99714.38;;;19.34;81.77
80382;BME280;69692;55.820;37.490;2023-05-25T10:50:33;99717.66;;;19.31;81.81
80382;BME280;69692;55.820;37.490;2023-05-25T10:53:07;99718.78;;;19.30;82.04
80382;BME280;69692;55.820;37.490;2023-05-25T10:58:13;99720.16;;;19.27;81.81
80382;BME280;69692;55.820;37.490;2023-05-25T11:00:40;99715.53;;;19.28;81.20
80382;BME280;69692;55.820;37.490;2023-05-25T11:03:06;99719.88;;;19.29;80.24
80382;BME280;69692;55.820;37.490;2023-05-25T11:05:34;99714.41;;;19.29;80.09
80382;BME280;69692;55.820;37.490;2023-05-25T11:08:01;99706.19;;;19.34;79.89
80382;BME280;69692;55.820;37.490;2023-05-25T11:13:35;99710.16;;;19.47;79.61
80382;BME280;69692;55.820;37.490;2023-05-25T11:16:21;99706.63;;;19.46;79.44
80382;BME280;69692;55.820;37.490;2023-05-25T11:18:54;99706.63;;;19.46;80.40
80382;BME280;69692;55.820;37.490;2023-05-25T11:23:58;99704.69;;;19.47;80.31
80382;BME280;69692;55.820;37.490;2023-05-25T11:26:29;99697.38;;;19.42;80.62
80382;BME280;69692;55.820;37.490;2023-05-25T11:28:56;99693.91;;;19.36;80.99
80382;BME280;69692;55.820;37.490;2023-05-25T11:31:30;99690.38;;;19.31;80.25
80382;BME280;69692;55.820;37.490;2023-05-25T11:33:58;99688.00;;;19.24;79.77
80382;BME280;69692;55.820;37.490;2023-05-25T11:36:28;99687.50;;;19.17;79.86
80382;BME280;69692;55.820;37.490;2023-05-25T11:39:03;99687.28;;;19.14;80.21
80382;BME280;69692;55.820;37.490;2023-05-25T11:41:30;99677.47;;;19.13;79.94
80382;BME280;69692;55.820;37.490;2023-05-25T11:44:03;99673.91;;;19.12;79.49
80382;BME280;69692;55.820;37.490;2023-05-25T11:46:31;99674.25;;;19.05;80.36
80382;BME280;69692;55.820;37.490;2023-05-25T11:48:58;99675.09;;;19.01;80.06
80382;BME280;69692;55.820;37.490;2023-05-25T11:51:26;99670.44;;;19.06;80.14
80382;BME280;69692;55.820;37.490;2023-05-25T11:53:52;99669.13;;;18.99;78.82
80382;BME280;69692;55.820;37.490;2023-05-25T11:56:18;99676.53;;;18.93;79.73
80382;BME280;69692;55.820;37.490;2023-05-25T11:58:48;99679.03;;;18.90;80.64
80382;BME280;69692;55.820;37.490;2023-05-25T12:01:22;99674.91;;;18.92;80.39
80382;BME280;69692;55.820;37.490;2023-05-25T12:03:52;99670.50;;;18.96;81.24
80382;BME280;69692;55.820;37.490;2023-05-25T12:06:30;99681.91;;;19.03;81.57
80382;BME280;69692;55.820;37.490;2023-05-25T12:08:59;99672.06;;;19.08;79.92
80382;BME280;69692;55.820;37.490;2023-05-25T12:11:36;99680.81;;;19.04;78.66
80382;BME280;69692;55.820;37.490;2023-05-25T12:14:09;99671.28;;;19.02;80.26
80382;BME280;69692;55.820;37.490;2023-05-25T12:16:36;99679.22;;;18.98;80.09
80382;BME280;69692;55.820;37.490;2023-05-25T12:19:09;99668.88;;;18.95;81.21
80382;BME280;69692;55.820;37.490;2023-05-25T12:21:41;99672.66;;;18.99;79.53
80382;BME280;69692;55.820;37.490;2023-05-25T12:24:08;99675.09;;;19.01;79.44
80382;BME280;69692;55.820;37.490;2023-05-25T12:26:35;99665.00;;;19.01;79.54
80382;BME280;69692;55.820;37.490;2023-05-25T12:29:11;99662.63;;;18.95;79.55
80382;BME280;69692;55.820;37.490;2023-05-25T12:31:37;99661.53;;;18.96;78.87
80382;BME280;69692;55.820;37.490;2023-05-25T12:36:55;99657.41;;;18.98;78.37
80382;BME280;69692;55.820;37.490;2023-05-25T12:39:31;99658.44;;;19.02;78.38
80382;BME280;69692;55.820;37.490;2023-05-25T12:42:00;99650.53;;;19.06;79.17
80382;BME280;69692;55.820;37.490;2023-05-25T12:44:28;99655.59;;;19.18;78.57
80382;BME280;69692;55.820;37.490;2023-05-25T12:47:15;99654.16;;;19.25;78.80
80382;BME280;69692;55.820;37.490;2023-05-25T12:49:43;99657.06;;;19.34;77.92
80382;BME280;69692;55.820;37.490;2023-05-25T12:52:10;99653.19;;;19.40;77.73
80382;BME280;69692;55.820;37.490;2023-05-25T12:54:40;99655.94;;;19.40;77.03
80382;BME280;69692;55.820;37.490;2023-05-25T12:57:09;99660.06;;;19.38;76.45
80382;BME280;69692;55.820;37.490;2023-05-25T12:59:36;99661.47;;;19.30;77.00
80382;BME280;69692;55.820;37.490;2023-05-25T13:02:04;99656.91;;;19.25;78.01
80382;BME280;69692;55.820;37.490;2023-05-25T13:04:30;99656.97;;;19.15;78.89
80382;BME280;69692;55.820;37.490;2023-05-25T13:06:56;99658.94;;;19.10;78.57
80382;BME280;69692;55.820;37.490;2023-05-25T13:09:23;99661.47;;;19.01;79.34
80382;BME280;69692;55.820;37.490;2023-05-25T13:11:52;99669.47;;;18.92;78.58
80382;BME280;69692;55.820;37.490;2023-05-25T13:14:19;99667.84;;;18.91;78.66